Time;durP1;ratioP1;P1;durP2;ratioP2;P2;SDS_P1;SDS_P2;PMS_P1;PMS_P2;Temp;Humidity;BMP_temperature;BMP_pressure;BME280_temperature;BME280_humidity;BME280_pressure;Samples;Min_cycle;Max_cycle;Signal;HPM_P1;HPM_P2
2022/10/06 00:00:21;;;;;;;12.05;2.80;;;14.20;99.90;;;13.33;100.00;98117.06;5051932;28;20960;-76
2022/10/06 00:02:49;;;;;;;6.63;2.95;;;14.20;99.90;;;13.42;100.00;98122.72;5051221;28;20939;-75
2022/10/06 00:05:15;;;;;;;6.20;2.95;;;14.20;99.90;;;13.48;100.00;98125.19;5051766;28;20398;-76
2022/10/06 00:07:41;;;;;;;8.02;3.00;;;14.30;99.90;;;13.49;100.00;98123.34;5051629;28;20486;-75
2022/10/06 00:10:07;;;;;;;5.87;2.97;;;14.30;99.90;;;13.55;100.00;98130.31;5051552;28;20883;-75
2022/10/06 00:12:39;;;;;;;6.03;2.53;;;14.30;99.90;;;13.53;100.00;98129.78;5051511;28;20832;-76
2022/10/06 00:15:07;;;;;;;6.03;2.70;;;14.30;99.90;;;13.49;100.00;98126.78;5051385;28;20930;-76
2022/10/06 00:17:33;;;;;;;4.23;2.77;;;14.30;99.90;;;13.64;99.67;98131.47;5051469;28;20444;-75
2022/10/06 00:20:01;;;;;;;7.93;2.85;;;14.40;99.90;;;13.60;95.51;98143.66;5051405;28;20810;-76
2022/10/06 00:22:33;;;;;;;7.47;2.88;;;14.40;99.90;;;13.60;92.66;98145.53;5051116;28;20424;-76
2022/10/06 00:24:59;;;;;;;5.07;2.83;;;14.40;99.90;;;13.62;92.80;98138.88;5050909;28;20404;-76
2022/10/06 00:27:25;;;;;;;6.55;2.80;;;14.50;99.90;;;13.66;92.71;98149.84;5051417;28;20397;-76
2022/10/06 00:29:51;;;;;;;6.80;2.83;;;14.50;99.90;;;13.71;94.69;98148.00;5051306;28;20405;-76
2022/10/06 00:32:17;;;;;;;11.02;2.65;;;14.50;99.90;;;13.71;94.97;98140.03;5051126;28;20431;-76
2022/10/06 00:34:43;;;;;;;5.43;2.70;;;14.50;99.90;;;13.78;97.75;98145.16;5050674;28;20415;-75
2022/10/06 00:37:10;;;;;;;8.10;2.90;;;14.50;99.90;;;13.74;96.21;98144.88;5051142;28;20416;-76
2022/10/06 00:39:36;;;;;;;5.90;2.70;;;14.60;99.90;;;13.70;96.59;98165.03;5051022;28;20409;-76
2022/10/06 00:42:02;;;;;;;4.15;2.75;;;14.50;99.90;;;13.68;95.71;98159.16;5050971;28;20401;-76
2022/10/06 00:44:28;;;;;;;6.00;3.13;;;14.50;99.90;;;13.73;94.36;98163.72;5050350;28;21031;-76
2022/10/06 00:46:53;;;;;;;5.87;2.87;;;14.50;99.90;;;13.70;96.14;98166.88;5050957;28;20501;-76
2022/10/06 00:49:26;;;;;;;3.72;2.60;;;14.50;99.90;;;13.68;98.70;98169.00;5050923;28;20460;-76
2022/10/06 00:51:57;;;;;;;6.30;2.95;;;14.50;99.90;;;13.67;99.90;98178.06;5050886;28;20394;-76
2022/10/06 00:54:25;;;;;;;5.55;2.78;;;14.50;99.90;;;13.59;99.50;98173.97;5050262;28;20833;-76
2022/10/06 00:56:51;;;;;;;4.90;2.97;;;14.40;99.90;;;13.59;100.00;98183.81;5049508;28;20389;-76
2022/10/06 00:59:18;;;;;;;5.60;2.72;;;14.40;99.90;;;13.49;99.92;98177.34;5050685;28;20437;-76
2022/10/06 01:01:53;;;;;;;7.70;3.13;;;14.30;99.90;;;13.41;97.90;98185.75;5050802;28;20460;-76
2022/10/06 01:04:21;;;;;;;6.20;3.20;;;14.30;99.90;;;13.39;98.84;98177.22;5050230;28;20402;-76
2022/10/06 01:06:51;;;;;;;8.30;3.17;;;14.20;99.90;;;13.40;98.67;98186.81;5050594;28;20435;-75
2022/10/06 01:09:18;;;;;;;4.80;2.70;;;14.20;99.90;;;13.39;98.07;98184.38;5050624;28;20394;-76
2022/10/06 01:11:50;;;;;;;5.70;2.85;;;14.20;99.90;;;13.37;100.00;98189.97;5050585;28;20732;-76
2022/10/06 01:14:18;;;;;;;6.37;2.87;;;14.20;99.90;;;13.39;100.00;98184.38;5049927;28;20409;-76
2022/10/06 01:16:50;;;;;;;6.45;3.17;;;14.20;99.90;;;13.38;100.00;98194.22;5050501;28;20417;-75
2022/10/06 01:19:34;;;;;;;8.38;3.35;;;14.20;99.90;;;13.40;100.00;98204.59;5050587;28;20766;-76
2022/10/06 01:22:04;;;;;;;6.93;3.10;;;14.20;99.90;;;13.36;100.00;98195.53;5050428;28;20485;-75
2022/10/06 01:24:32;;;;;;;6.22;2.88;;;14.20;99.90;;;13.28;100.00;98191.47;5049927;28;20408;-76
2022/10/06 01:26:59;;;;;;;6.45;3.10;;;14.10;99.90;;;13.26;100.00;98206.84;5050427;28;20404;-75
2022/10/06 01:29:26;;;;;;;6.70;3.10;;;14.10;99.90;;;13.17;100.00;98206.47;5050424;28;20408;-75
2022/10/06 01:31:52;;;;;;;4.80;2.75;;;14.00;99.90;;;13.14;100.00;98204.31;5050262;28;20874;-75
2022/10/06 01:34:18;;;;;;;5.53;3.25;;;14.00;99.90;;;13.14;100.00;98203.53;5047838;28;20910;-75
2022/10/06 01:36:45;;;;;;;5.13;3.20;;;14.00;99.90;;;13.07;100.00;98206.34;5050467;28;20416;-76
2022/10/06 01:39:11;;;;;;;6.53;3.55;;;13.90;99.90;;;12.99;100.00;98206.75;5050278;28;20437;-76
2022/10/06 01:41:38;;;;;;;5.72;3.33;;;13.80;99.90;;;12.96;100.00;98211.75;5050224;28;20459;-75
2022/10/06 01:44:04;;;;;;;8.47;3.40;;;13.80;99.90;;;12.89;100.00;98209.28;5049509;28;20435;-75
2022/10/06 01:46:30;;;;;;;3.92;3.00;;;13.80;99.90;;;12.85;100.00;98212.69;5050190;28;20408;-75
2022/10/06 01:48:56;;;;;;;9.63;3.88;;;13.70;99.90;;;12.83;100.00;98220.09;5050194;28;20433;-75
2022/10/06 01:51:22;;;;;;;6.38;3.30;;;13.70;99.90;;;12.86;100.00;98215.06;5050042;28;20487;-75
2022/10/06 01:53:48;;;;;;;8.38;3.40;;;13.70;99.90;;;12.78;100.00;98212.81;5049502;28;20413;-75
2022/10/06 01:56:14;;;;;;;7.68;3.42;;;13.70;99.90;;;12.76;100.00;98222.91;5050175;28;21030;-75
2022/10/06 01:58:41;;;;;;;6.88;3.80;;;13.60;99.90;;;12.73;100.00;98213.56;5048751;28;20432;-75
2022/10/06 02:01:08;;;;;;;8.18;3.90;;;13.60;99.90;;;12.75;100.00;98221.31;5050071;28;20401;-75
2022/10/06 02:03:35;;;;;;;7.60;3.72;;;13.60;99.90;;;12.74;100.00;98225.81;5049477;28;20948;-75
2022/10/06 02:06:01;;;;;;;5.30;3.63;;;13.60;99.90;;;12.73;100.00;98232.16;5049978;28;20401;-75
2022/10/06 02:08:27;;;;;;;7.03;3.33;;;13.60;99.90;;;12.71;100.00;98225.47;5049882;28;20753;-75
2022/10/06 02:10:53;;;;;;;10.13;3.70;;;13.60;99.90;;;12.73;100.00;98218.09;5049988;28;20405;-75
2022/10/06 02:13:22;;;;;;;10.38;3.65;;;13.60;99.90;;;12.73;100.00;98229.50;5049331;28;20412;-75
2022/10/06 02:15:50;;;;;;;8.75;3.38;;;13.60;99.90;;;12.71;100.00;98231.59;5049994;28;20448;-75
2022/10/06 02:18:16;;;;;;;8.75;3.85;;;13.60;99.90;;;12.72;100.00;98238.53;5049982;28;20408;-75
2022/10/06 02:20:42;;;;;;;7.85;3.70;;;13.60;99.90;;;12.72;100.00;98235.88;5048539;28;20508;-75
2022/10/06 02:23:08;;;;;;;6.35;3.20;;;13.60;99.90;;;12.72;100.00;98229.75;5049274;28;20405;-75
2022/10/06 02:25:34;;;;;;;8.15;3.53;;;13.60;99.90;;;12.75;100.00;98242.56;5049818;28;20394;-75
2022/10/06 02:28:00;;;;;;;8.02;3.70;;;13.60;99.90;;;12.71;100.00;98250.19;5048508;28;20410;-75
2022/10/06 02:30:26;;;;;;;6.30;3.17;;;13.60;99.90;;;12.68;100.00;98245.38;5049733;28;20486;-75
2022/10/06 02:32:54;;;;;;;8.75;3.40;;;13.50;99.90;;;12.73;100.00;98244.66;5049240;28;20406;-75
2022/10/06 02:35:20;;;;;;;6.45;3.38;;;13.60;99.90;;;12.73;100.00;98257.94;5049639;28;20445;-75
2022/10/06 02:37:46;;;;;;;8.25;3.72;;;13.60;99.90;;;12.72;100.00;98256.31;5049716;28;20455;-75
2022/10/06 02:40:12;;;;;;;9.88;3.83;;;13.60;99.90;;;12.69;100.00;98267.44;5049733;28;20774;-75
2022/10/06 02:42:38;;;;;;;7.70;3.40;;;13.50;99.90;;;12.66;100.00;98265.25;5049469;28;20406;-75
2022/10/06 02:45:05;;;;;;;6.70;3.53;;;13.50;99.90;;;12.64;100.00;98275.31;5048399;28;20406;-75
2022/10/06 02:47:32;;;;;;;8.98;3.60;;;13.50;99.90;;;12.64;100.00;98270.81;5053218;28;20405;-75
2022/10/06 02:50:00;;;;;;;8.55;3.67;;;13.50;99.90;;;12.57;100.00;98280.78;5051902;28;20417;-75
2022/10/06 02:52:32;;;;;;;6.72;3.53;;;13.40;99.90;;;12.57;100.00;98272.81;5051746;28;20488;-75
2022/10/06 02:54:57;;;;;;;9.77;3.85;;;13.40;99.90;;;12.56;100.00;98281.84;5052589;28;20425;-75
2022/10/06 02:57:23;;;;;;;7.53;3.60;;;13.50;99.90;;;12.61;100.00;98279.28;5053128;28;20603;-75
2022/10/06 02:59:50;;;;;;;11.65;4.05;;;13.40;99.90;;;12.58;100.00;98271.78;5052972;28;20409;-75
2022/10/06 03:02:15;;;;;;;12.13;4.10;;;13.40;99.90;;;12.54;100.00;98283.16;5052888;28;20451;-76
2022/10/06 03:04:41;;;;;;;9.10;3.95;;;13.40;99.90;;;12.58;100.00;98287.72;5052296;28;20462;-75
2022/10/06 03:07:08;;;;;;;7.15;3.72;;;13.40;99.90;;;12.59;100.00;98299.16;5052852;28;20412;-75
2022/10/06 03:09:34;;;;;;;8.73;3.97;;;13.40;99.90;;;12.59;100.00;98296.50;5052840;28;20402;-75
2022/10/06 03:12:00;;;;;;;7.07;3.60;;;13.40;99.90;;;12.65;100.00;98296.34;5051325;28;20414;-75
2022/10/06 03:14:26;;;;;;;6.22;3.72;;;13.50;99.90;;;12.65;100.00;98309.59;5052068;28;20416;-75
2022/10/06 03:16:53;;;;;;;9.27;4.30;;;13.50;99.90;;;12.62;100.00;98307.47;5051412;28;20409;-75
2022/10/06 03:19:19;;;;;;;11.73;4.18;;;13.50;99.90;;;12.65;100.00;98314.94;5052481;28;20404;-75
2022/10/06 03:21:45;;;;;;;7.63;3.40;;;13.50;99.90;;;12.65;100.00;98317.59;5052625;28;20401;-75
2022/10/06 03:24:13;;;;;;;14.52;3.85;;;13.50;99.90;;;12.67;100.00;98330.63;5052070;28;20393;-75
2022/10/06 03:26:42;;;;;;;9.45;4.18;;;13.50;99.90;;;12.62;100.00;98341.19;5052487;28;20406;-75
2022/10/06 03:29:09;;;;;;;7.28;3.25;;;13.50;99.90;;;12.59;100.00;98336.34;5052392;28;20886;-75
2022/10/06 03:31:36;;;;;;;6.60;3.60;;;13.40;99.90;;;12.54;100.00;98345.03;5052532;28;20440;-75
2022/10/06 03:34:03;;;;;;;6.53;3.67;;;13.40;99.90;;;12.48;100.00;98345.19;5051645;28;20436;-75
2022/10/06 03:36:32;;;;;;;9.45;4.10;;;13.40;99.90;;;12.44;100.00;98339.53;5052304;28;20409;-75
2022/10/06 03:38:58;;;;;;;9.55;3.85;;;13.30;99.90;;;12.40;100.00;98341.84;5052283;28;20416;-75
2022/10/06 03:41:27;;;;;;;6.25;3.70;;;13.30;99.90;;;12.36;100.00;98350.53;5052130;28;20409;-75
2022/10/06 03:43:56;;;;;;;6.15;3.67;;;13.20;99.90;;;12.32;100.00;98354.72;5070428;22;20382;-74
2022/10/06 03:46:25;;;;;;;7.07;3.80;;;13.20;99.90;;;12.29;100.00;98365.81;5111548;28;20388;-78
2022/10/06 03:48:52;;;;;;;7.10;4.10;;;13.20;99.90;;;12.24;100.00;98360.44;5110277;28;20404;-75
2022/10/06 03:51:20;;;;;;;11.25;4.38;;;13.10;99.90;;;12.24;100.00;98363.06;5112455;28;20397;-75
2022/10/06 03:53:49;;;;;;;13.63;4.13;;;13.10;99.90;;;12.20;100.00;98372.53;5110830;27;20941;-77
2022/10/06 03:56:18;;;;;;;12.38;4.70;;;13.10;99.90;;;12.13;100.00;98380.66;5099358;28;20410;-75
2022/10/06 03:58:49;;;;;;;16.33;4.72;;;13.00;99.90;;;12.09;100.00;98394.63;5100514;28;20878;-74
2022/10/06 04:01:19;;;;;;;9.27;4.35;;;13.00;99.90;;;12.06;100.00;98397.75;5100957;28;20395;-75
2022/10/06 04:03:45;;;;;;;12.57;4.53;;;13.00;99.90;;;12.01;100.00;98393.16;5100169;28;20876;-76
2022/10/06 04:06:16;;;;;;;5.75;3.85;;;12.90;99.90;;;12.00;100.00;98399.50;5101378;28;20471;-76
2022/10/06 04:08:43;;;;;;;8.32;4.20;;;12.90;99.90;;;12.00;100.00;98400.31;5102455;28;20388;-75
2022/10/06 04:11:12;;;;;;;7.38;4.35;;;12.90;99.90;;;12.05;100.00;98398.78;5102099;28;20385;-75
2022/10/06 04:13:39;;;;;;;11.68;4.40;;;12.90;99.90;;;12.09;100.00;98399.94;5101637;28;20422;-75
2022/10/06 04:16:13;;;;;;;9.32;4.20;;;13.00;99.90;;;12.10;100.00;98398.91;5100315;28;20768;-75
2022/10/06 04:18:39;;;;;;;6.53;3.70;;;13.00;99.90;;;12.07;100.00;98402.81;5101947;28;20454;-75
2022/10/06 04:21:05;;;;;;;14.38;3.97;;;13.00;99.90;;;12.07;100.00;98409.97;5100264;28;20912;-75
2022/10/06 04:23:32;;;;;;;13.68;4.25;;;12.90;99.90;;;12.02;100.00;98411.50;5102503;28;20410;-75
2022/10/06 04:25:58;;;;;;;7.60;4.18;;;12.90;99.90;;;12.03;100.00;98409.63;5099181;28;20421;-74
2022/10/06 04:28:25;;;;;;;8.73;4.28;;;12.90;99.90;;;12.00;100.00;98410.94;5102180;28;20446;-73
2022/10/06 04:30:55;;;;;;;11.98;3.88;;;12.90;99.90;;;11.98;100.00;98410.34;5101581;28;20405;-76
2022/10/06 04:33:23;;;;;;;10.18;4.10;;;12.90;99.90;;;11.95;100.00;98423.28;5102154;28;20958;-73
2022/10/06 04:35:57;;;;;;;10.35;4.20;;;12.80;99.90;;;11.92;100.00;98418.44;5098394;28;20403;-73
2022/10/06 04:38:23;;;;;;;6.70;3.65;;;12.80;99.90;;;11.90;100.00;98420.50;5100694;28;20396;-73
2022/10/06 04:40:48;;;;;;;9.57;4.47;;;12.80;99.90;;;11.89;100.00;98422.34;5101752;28;20408;-74
2022/10/06 04:43:14;;;;;;;5.73;4.30;;;12.80;99.90;;;11.87;100.00;98421.81;5102142;28;20470;-74
2022/10/06 04:45:40;;;;;;;8.50;4.10;;;12.80;99.90;;;11.86;100.00;98425.50;5101586;28;20407;-74
2022/10/06 04:48:06;;;;;;;9.52;4.20;;;12.80;99.90;;;11.84;100.00;98429.41;5101669;28;20883;-73
2022/10/06 04:50:33;;;;;;;10.70;4.00;;;12.70;99.90;;;11.82;100.00;98429.63;5097720;28;20406;-74
2022/10/06 04:52:59;;;;;;;10.88;4.25;;;12.70;99.90;;;11.84;100.00;98426.75;5098373;28;20406;-73
2022/10/06 04:55:25;;;;;;;7.20;4.35;;;12.70;99.90;;;11.90;100.00;98431.94;5101325;28;20408;-73
2022/10/06 04:57:51;;;;;;;7.15;4.10;;;12.80;99.90;;;11.92;100.00;98435.16;5100336;28;20456;-74
2022/10/06 05:00:24;;;;;;;7.50;4.05;;;12.80;99.90;;;11.93;100.00;98444.75;5100053;28;20490;-73
2022/10/06 05:02:51;;;;;;;7.28;4.00;;;12.80;99.90;;;11.97;100.00;98434.47;5101247;28;20397;-74
2022/10/06 05:05:17;;;;;;;9.02;4.40;;;12.80;99.90;;;11.99;100.00;98443.81;5108116;28;20384;-73
2022/10/06 05:07:46;;;;;;;7.90;3.90;;;12.90;99.90;;;12.02;100.00;98440.69;5097612;28;20738;-74
2022/10/06 05:10:12;;;;;;;7.38;4.13;;;12.90;99.90;;;12.08;100.00;98456.72;5102398;28;20507;-73
2022/10/06 05:12:38;;;;;;;7.70;4.20;;;12.90;99.90;;;12.13;100.00;98456.81;5110512;28;20877;-74
2022/10/06 05:15:05;;;;;;;8.87;4.13;;;13.00;99.90;;;12.16;100.00;98461.66;5109908;28;20800;-74
2022/10/06 05:17:30;;;;;;;8.45;4.38;;;13.00;99.90;;;12.20;100.00;98463.59;5110323;28;20491;-75
2022/10/06 05:19:56;;;;;;;17.13;4.13;;;13.00;99.90;;;12.23;100.00;98459.69;5104761;28;20508;-74
2022/10/06 05:22:22;;;;;;;7.05;4.05;;;13.10;99.90;;;12.29;100.00;98472.81;5090536;28;20480;-74
2022/10/06 05:24:52;;;;;;;9.40;4.10;;;13.10;99.90;;;12.31;100.00;98465.44;5089987;28;20397;-75
2022/10/06 05:27:18;;;;;;;7.65;3.90;;;13.20;99.90;;;12.37;100.00;98471.63;5090597;28;20398;-73
2022/10/06 05:29:44;;;;;;;9.35;3.83;;;13.20;99.90;;;12.38;100.00;98475.91;5090602;28;20401;-75
2022/10/06 05:32:10;;;;;;;8.90;5.07;;;13.20;99.90;;;12.45;100.00;98476.59;5090371;28;20398;-75
2022/10/06 05:34:36;;;;;;;8.52;4.25;;;13.30;99.90;;;12.49;100.00;98483.03;5089770;28;20493;-74
2022/10/06 05:37:02;;;;;;;9.37;4.13;;;13.30;99.90;;;12.50;100.00;98486.47;5090364;28;20402;-73
2022/10/06 05:39:27;;;;;;;7.68;4.28;;;13.40;99.90;;;12.51;100.00;98493.41;5089045;28;21412;-74
2022/10/06 05:41:55;;;;;;;6.40;3.65;;;13.40;99.90;;;12.52;100.00;98492.38;5090175;28;20425;-74
2022/10/06 05:44:20;;;;;;;10.57;5.10;;;13.30;99.90;;;12.51;100.00;98493.41;5089666;28;20472;-74
2022/10/06 05:46:46;;;;;;;6.43;4.20;;;13.40;99.90;;;12.53;100.00;98486.03;5090403;28;20838;-74
2022/10/06 05:49:12;;;;;;;6.57;4.10;;;13.40;99.90;;;12.57;100.00;98492.47;5090266;28;20406;-74
2022/10/06 05:51:39;;;;;;;6.82;4.05;;;13.40;99.90;;;12.61;100.00;98504.25;5090344;28;20484;-74
2022/10/06 05:54:05;;;;;;;5.95;3.72;;;13.40;99.90;;;12.61;100.00;98501.59;5089564;28;20445;-74
2022/10/06 05:56:34;;;;;;;7.35;3.92;;;13.50;99.90;;;12.60;100.00;98506.09;5090263;28;20427;-74
2022/10/06 05:59:02;;;;;;;6.00;3.78;;;13.40;99.90;;;12.60;100.00;98514.06;5090273;28;20402;-74
2022/10/06 06:01:30;;;;;;;6.65;4.20;;;13.40;99.90;;;12.64;100.00;98507.22;5090185;28;20436;-75
2022/10/06 06:03:59;;;;;;;9.73;4.60;;;13.40;99.90;;;12.69;100.00;98517.16;5089599;28;20397;-74
2022/10/06 06:06:27;;;;;;;8.90;4.38;;;13.50;99.90;;;12.71;100.00;98521.16;5090183;28;20398;-74
2022/10/06 06:08:55;;;;;;;7.28;4.60;;;13.50;99.90;;;12.74;100.00;98527.88;5090164;28;20535;-74
2022/10/06 06:11:25;;;;;;;7.80;4.20;;;13.60;99.90;;;12.76;100.00;98526.59;5097808;28;20408;-74
2022/10/06 06:13:51;;;;;;;5.63;4.15;;;13.60;99.90;;;12.77;100.00;98533.53;5105283;28;20454;-75
2022/10/06 06:16:18;;;;;;;11.75;4.45;;;13.60;99.90;;;12.76;100.00;98537.22;5096203;28;20785;-75
2022/10/06 06:18:44;;;;;;;7.17;4.00;;;13.60;99.90;;;12.82;100.00;98535.47;5100806;28;20411;-75
2022/10/06 06:21:10;;;;;;;6.97;4.07;;;13.60;99.90;;;12.87;100.00;98556.00;5101889;28;20410;-75
2022/10/06 06:23:39;;;;;;;8.25;3.85;;;13.70;99.90;;;12.89;100.00;98548.59;5104679;27;20408;-76
2022/10/06 06:26:07;;;;;;;9.20;3.85;;;13.70;99.90;;;12.95;100.00;98550.31;5104854;28;20454;-74
2022/10/06 06:28:35;;;;;;;7.00;4.20;;;13.80;99.90;;;12.99;100.00;98551.47;5108305;28;20388;-75
2022/10/06 06:31:03;;;;;;;8.80;4.25;;;13.80;99.90;;;13.02;100.00;98553.63;5110298;28;20760;-73
2022/10/06 06:33:31;;;;;;;6.57;4.37;;;13.80;99.90;;;13.04;100.00;98556.88;5123019;27;21385;-74
2022/10/06 06:35:59;;;;;;;8.18;4.05;;;13.80;99.90;;;13.06;100.00;98568.06;5103608;28;20479;-75
2022/10/06 06:38:25;;;;;;;7.50;4.25;;;13.90;99.90;;;13.13;100.00;98571.44;5102186;28;20811;-75
2022/10/06 06:40:51;;;;;;;8.10;4.10;;;13.90;99.90;;;13.18;100.00;98576.81;5102351;28;20908;-74
2022/10/06 06:43:17;;;;;;;9.63;4.25;;;13.90;99.90;;;13.27;100.00;98575.41;5109779;28;20411;-74
2022/10/06 06:45:44;;;;;;;11.68;4.45;;;14.00;99.90;;;13.39;100.00;98572.66;5113265;28;20392;-74
2022/10/06 06:48:14;;;;;;;6.60;4.03;;;14.10;99.90;;;13.45;100.00;98585.84;5114563;27;20404;-74
2022/10/06 06:50:42;;;;;;;8.50;4.30;;;14.20;99.90;;;13.55;100.00;98593.97;5099541;27;20402;-74
2022/10/06 06:53:08;;;;;;;8.23;3.85;;;14.30;99.90;;;13.57;100.00;98591.88;5102717;28;20404;-74
2022/10/06 06:55:46;;;;;;;7.50;3.75;;;14.30;99.90;;;13.75;100.00;98592.72;5105926;28;20936;-74
2022/10/06 06:58:12;;;;;;;5.90;3.55;;;14.40;99.90;;;13.80;100.00;98600.78;5105957;28;20408;-75
2022/10/06 07:00:38;;;;;;;8.10;3.50;;;14.50;99.90;;;13.80;100.00;98596.25;5103031;28;20410;-74
2022/10/06 07:03:04;;;;;;;6.60;2.88;;;14.50;99.90;;;13.82;100.00;98602.16;5098972;28;20406;-75
2022/10/06 07:05:31;;;;;;;6.55;3.15;;;14.60;99.90;;;13.82;100.00;98604.00;5096262;28;20404;-83
2022/10/06 07:07:58;;;;;;;8.45;3.13;;;14.60;99.90;;;13.82;100.00;98617.31;5109550;28;20423;-82
2022/10/06 07:10:26;;;;;;;6.00;3.03;;;14.60;99.90;;;13.77;100.00;98617.22;5094488;28;20459;-75
2022/10/06 07:12:52;;;;;;;7.33;3.43;;;14.50;99.90;;;13.78;100.00;98616.16;5092358;28;20402;-76
2022/10/06 07:26:18;;;;;;;6.53;2.70;;;14.70;99.90;;;13.98;100.00;98637.81;5100171;28;20539;-75
2022/10/06 07:28:44;;;;;;;4.13;2.58;;;14.70;99.90;;;14.03;100.00;98637.06;5100049;28;20499;-77
2022/10/06 07:31:10;;;;;;;6.05;2.38;;;14.70;99.90;;;14.03;100.00;98643.22;5110369;28;20423;-77
2022/10/06 07:33:37;;;;;;;9.25;3.20;;;14.80;99.90;;;14.20;100.00;98649.34;5108855;28;20443;-75
2022/10/06 07:36:03;;;;;;;4.47;2.25;;;14.80;99.90;;;14.21;100.00;98647.47;5104099;28;20883;-75
2022/10/06 07:38:30;;;;;;;6.05;2.55;;;14.90;99.90;;;14.27;100.00;98657.97;5106875;28;20842;-76
2022/10/06 07:40:57;;;;;;;7.45;2.30;;;15.00;99.90;;;14.25;100.00;98645.94;5106018;28;20479;-78
2022/10/06 07:43:23;;;;;;;5.10;2.22;;;15.00;99.90;;;14.34;100.00;98655.94;5100181;28;20410;-76
2022/10/06 07:45:49;;;;;;;4.95;2.25;;;15.10;99.90;;;14.44;100.00;98662.47;5096282;27;20428;-76
2022/10/06 07:48:18;;;;;;;7.25;2.60;;;15.10;99.90;;;14.51;100.00;98655.16;5093636;28;20401;-76
2022/10/06 07:50:47;;;;;;;4.75;2.20;;;15.20;99.90;;;14.55;100.00;98650.94;5099346;28;20457;-75
2022/10/06 07:53:15;;;;;;;6.72;2.25;;;15.20;99.90;;;14.61;100.00;98663.25;5094217;28;20492;-76
2022/10/06 07:55:44;;;;;;;5.57;2.20;;;15.30;99.90;;;14.64;100.00;98657.47;5105535;28;20494;-76
2022/10/06 07:58:13;;;;;;;6.22;2.05;;;15.40;99.90;;;14.71;100.00;98661.56;5103942;28;20431;-76
2022/10/06 08:00:39;;;;;;;9.27;2.15;;;15.40;99.90;;;14.77;100.00;98662.44;5099129;28;20456;-73
2022/10/06 08:03:08;;;;;;;5.60;2.57;;;15.50;99.90;;;14.79;100.00;98664.84;5100119;28;20600;-74
2022/10/06 08:05:33;;;;;;;4.68;2.20;;;15.50;99.90;;;14.82;100.00;98669.66;5100405;28;21049;-73
2022/10/06 08:07:59;;;;;;;7.17;2.20;;;15.50;99.90;;;14.81;100.00;98681.41;5102016;28;20494;-74
2022/10/06 08:10:25;;;;;;;7.43;2.40;;;15.50;99.90;;;14.77;100.00;98669.63;5107145;28;20412;-75
2022/10/06 08:12:51;;;;;;;4.43;2.00;;;15.50;99.90;;;14.77;100.00;98677.59;5107827;28;20427;-73
2022/10/06 08:15:19;;;;;;;4.60;2.20;;;15.50;99.90;;;14.78;100.00;98685.38;5104686;28;20902;-72
2022/10/06 08:17:45;;;;;;;4.15;2.00;;;15.50;99.90;;;14.80;100.00;98690.47;5105047;28;20526;-73
2022/10/06 08:20:12;;;;;;;6.95;2.38;;;15.50;99.90;;;14.88;100.00;98692.72;5107298;28;20416;-73
2022/10/06 08:22:39;;;;;;;4.00;1.98;;;15.60;99.90;;;14.89;100.00;98692.44;5101295;28;20427;-73
2022/10/06 08:25:06;;;;;;;5.35;2.08;;;15.60;99.90;;;14.95;100.00;98691.47;5106286;28;20412;-73
2022/10/06 08:27:33;;;;;;;7.13;2.20;;;15.70;99.90;;;15.00;100.00;98688.06;5102369;28;20417;-73
2022/10/06 08:29:59;;;;;;;5.50;2.08;;;15.70;99.90;;;14.93;100.00;98703.44;5102603;28;20403;-74
2022/10/06 08:32:26;;;;;;;4.72;1.95;;;15.70;99.90;;;14.96;100.00;98701.06;5108736;28;20435;-75
2022/10/06 08:34:53;;;;;;;6.28;2.38;;;15.60;99.90;;;15.00;100.00;98704.84;5108821;28;20408;-75
2022/10/06 08:37:25;;;;;;;5.40;2.00;;;15.60;99.90;;;14.97;93.73;98716.00;5102287;28;20409;-74
2022/10/06 08:39:52;;;;;;;4.95;1.80;;;15.70;99.90;;;14.83;93.76;98703.28;5107550;28;20413;-73
2022/10/06 08:42:30;;;;;;;7.20;3.17;;;15.60;99.90;;;14.78;95.55;98711.22;5102603;28;20503;-75
2022/10/06 08:45:01;;;;;;;9.15;2.28;;;15.50;99.90;;;14.75;94.75;98715.16;5107796;28;20402;-76
2022/10/06 08:47:34;;;;;;;6.40;2.20;;;15.50;99.90;;;14.71;95.24;98714.06;5095936;28;20416;-76
2022/10/06 08:50:03;;;;;;;6.85;1.75;;;15.40;99.90;;;14.70;96.01;98712.44;5102659;28;20408;-74
2022/10/06 08:52:46;;;;;;;6.88;1.90;;;15.40;99.90;;;14.73;96.57;98717.28;5110123;28;20911;-73
2022/10/06 08:55:33;;;;;;;3.97;1.60;;;15.40;99.90;;;14.83;98.21;98716.59;5095018;28;20422;-73
2022/10/06 08:58:29;;;;;;;3.67;1.52;;;15.50;99.90;;;14.84;97.94;98721.69;5096189;28;20420;-71
2022/10/06 09:00:59;;;;;;;9.45;1.70;;;15.50;99.90;;;14.80;93.21;98720.59;5100388;28;20529;-73
2022/10/06 09:03:28;;;;;;;6.80;1.83;;;15.50;99.90;;;14.80;94.83;98723.25;5107371;28;20405;-72
2022/10/06 09:06:07;;;;;;;6.15;1.67;;;15.50;99.90;;;14.82;96.34;98731.78;5110766;28;20400;-72
2022/10/06 09:08:49;;;;;;;7.65;1.88;;;15.50;99.90;;;14.89;97.59;98736.94;5108084;28;20437;-72
2022/10/06 09:11:44;;;;;;;7.80;1.73;;;15.60;99.90;;;14.96;96.09;98734.94;5090717;28;20402;-73
2022/10/06 09:14:18;;;;;;;7.68;2.00;;;15.60;99.90;;;15.02;95.01;98733.94;5090410;28;21484;-72
2022/10/06 09:16:52;;;;;;;4.78;1.73;;;15.70;99.90;;;15.14;95.86;98736.50;5106502;28;20487;-75
2022/10/06 09:19:28;;;;;;;7.82;2.00;;;15.80;99.90;;;15.15;95.63;98730.09;5107939;28;20758;-77
2022/10/06 09:21:54;;;;;;;9.10;2.17;;;15.90;99.90;;;15.16;93.58;98737.06;5089461;28;20405;-76
2022/10/06 09:24:32;;;;;;;7.00;1.95;;;15.90;99.90;;;15.15;94.71;98741.59;5094135;28;20402;-77
2022/10/06 09:26:58;;;;;;;14.05;2.08;;;15.90;99.90;;;15.22;96.87;98730.72;5094669;28;20398;-75
2022/10/06 09:29:30;;;;;;;4.53;1.70;;;15.90;99.90;;;15.35;97.27;98739.16;5106884;28;21046;-75
2022/10/06 09:31:56;;;;;;;7.38;2.00;;;15.90;99.90;;;15.42;95.08;98741.63;5103544;28;20410;-76
2022/10/06 09:34:33;;;;;;;6.07;1.80;;;16.20;99.90;;;15.43;90.17;98744.06;5115693;28;20462;-75
2022/10/06 09:37:02;;;;;;;5.32;1.60;;;16.10;99.90;;;15.78;84.33;98737.56;5095806;28;20413;-76
2022/10/06 09:39:35;;;;;;;3.88;1.60;;;16.40;99.90;;;15.68;87.68;98742.78;5093692;28;20423;-76
2022/10/06 09:42:05;;;;;;;4.75;1.60;;;16.40;99.90;;;15.90;87.82;98750.75;5100654;28;20406;-75
2022/10/06 09:47:43;;;;;;;9.60;2.20;;;16.50;99.90;;;15.83;88.82;98758.97;5067335;28;20485;-74
2022/10/06 09:50:22;;;;;;;6.13;1.90;;;16.50;99.90;;;15.97;89.26;98767.38;5050970;28;20408;-73
2022/10/06 09:53:15;;;;;;;6.90;1.80;;;16.50;99.90;;;16.06;88.05;98769.34;5064977;28;20800;-72
2022/10/06 09:55:50;;;;;;;6.93;1.67;;;16.70;99.90;;;15.99;84.81;98767.94;5072750;28;20416;-73
2022/10/06 09:58:22;;;;;;;6.13;2.00;;;16.60;99.90;;;15.99;86.52;98766.09;5052388;28;20503;-73
2022/10/06 10:00:53;;;;;;;4.78;1.55;;;16.70;99.90;;;15.96;87.95;98766.56;5056056;28;20413;-72
2022/10/06 10:03:20;;;;;;;5.20;1.80;;;16.70;99.90;;;16.04;90.81;98766.13;5065634;28;20413;-72
2022/10/06 10:05:50;;;;;;;8.55;1.77;;;16.70;99.90;;;16.08;89.27;98764.56;5050648;28;20458;-74
2022/10/06 10:08:23;;;;;;;4.18;1.60;;;16.70;99.90;;;16.03;87.93;98769.03;5051618;28;20956;-75
2022/10/06 10:10:50;;;;;;;5.78;1.70;;;16.70;99.90;;;16.03;89.86;98767.16;5051862;28;20421;-74
2022/10/06 10:13:23;;;;;;;8.90;2.08;;;16.70;99.90;;;15.99;88.36;98771.41;5053177;28;20400;-74
2022/10/06 10:15:55;;;;;;;6.40;1.80;;;16.70;99.90;;;16.08;89.97;98766.44;5053504;28;20428;-75
2022/10/06 10:18:29;;;;;;;9.27;2.35;;;16.70;99.90;;;15.94;88.32;98768.69;5053586;28;20409;-74
2022/10/06 10:20:59;;;;;;;9.20;1.90;;;16.70;99.90;;;15.93;91.24;98764.41;5053757;28;20883;-75
2022/10/06 10:23:29;;;;;;;7.00;1.67;;;16.60;99.90;;;15.99;93.44;98773.28;5051942;28;20403;-75
2022/10/06 10:26:15;;;;;;;7.23;1.83;;;16.60;99.90;;;16.05;94.80;98765.06;5063071;28;20391;-75
2022/10/06 10:29:11;;;;;;;8.35;1.83;;;16.70;99.90;;;16.11;94.03;98760.56;5056218;28;20449;-75
2022/10/06 10:31:51;;;;;;;9.10;1.85;;;16.70;99.90;;;16.13;84.97;98753.13;5053540;28;20395;-75